Sheffield Lake, Ohio
Current Conditions -  °F | °C
As of 10:53 AM on Sunday 21 Dec 2014 (Local Time) from KLPR Reporting Station
Overcast Overcast  
Wind Chill: 22°   Ceiling: 2400
Heat Index: 30°   Visibility: 8mi
Dew Point: 22°   Wind: 8mph
Humidity: 72%   Direction: 180°S
Pressure: 30.33"   Gusts: NA
Location:  41.49°N, 82.09°W
Report Text: KLPR 211553Z AUTO 18007KT 8SM OVC024 M01/M06 A3033 RMK AO2 SLP279 T10111056 TSNO
Loading
Personal Weather Stations






























Interactive Weather Map New forecast layout! Learn more

10-Day Weather Forecast

Advertisements
Track Severe Weather on mobile